Time;durP1;ratioP1;P1;durP2;ratioP2;P2;SDS_P1;SDS_P2;PMS_P1;PMS_P2;Temp;Humidity;BMP_temperature;BMP_pressure;BME280_temperature;BME280_humidity;BME280_pressure;Samples;Min_cycle;Max_cycle;Signal;HPM_P1;HPM_P2
2022/02/18 00:00:05;;;;;;;;;;;18.70;41.60;;;;;;5096892;28;20322;-62
2022/02/18 00:02:30;;;;;;;;;;;18.70;41.60;;;;;;5078624;28;19962;-62
2022/02/18 00:04:56;;;;;;;;;;;18.70;41.60;;;;;;5097210;28;20419;-63
2022/02/18 00:07:21;;;;;;;;;;;18.70;41.60;;;;;;5096869;28;20370;-62
2022/02/18 00:09:47;;;;;;;;;;;18.70;41.60;;;;;;5096660;28;20303;-62
2022/02/18 00:12:12;;;;;;;;;;;18.70;41.60;;;;;;5096886;28;19939;-62
2022/02/18 00:14:38;;;;;;;;;;;18.70;41.60;;;;;;5096716;28;19909;-62
2022/02/18 00:17:03;;;;;;;;;;;18.70;41.60;;;;;;5096646;28;20367;-62
2022/02/18 00:19:29;;;;;;;;;;;18.70;41.60;;;;;;5096588;28;19908;-62
2022/02/18 00:21:55;;;;;;;;;;;18.70;41.60;;;;;;5096239;28;19916;-62
2022/02/18 00:24:21;;;;;;;;;;;18.70;41.60;;;;;;5096360;28;20275;-62
2022/02/18 00:26:47;;;;;;;;;;;18.70;41.60;;;;;;5096718;28;20266;-62
2022/02/18 00:29:12;;;;;;;;;;;18.70;41.60;;;;;;5078635;28;19908;-62
2022/02/18 00:31:38;;;;;;;;;;;18.70;41.70;;;;;;5096916;28;19914;-62
2022/02/18 00:34:04;;;;;;;;;;;18.70;41.60;;;;;;5096565;28;19912;-62
2022/02/18 00:36:29;;;;;;;;;;;18.70;41.70;;;;;;5096458;28;20367;-62
2022/02/18 00:38:55;;;;;;;;;;;18.70;41.70;;;;;;5096241;28;19917;-61
2022/02/18 00:41:20;;;;;;;;;;;18.70;41.70;;;;;;5077141;28;20006;-62
2022/02/18 00:43:46;;;;;;;;;;;18.70;41.70;;;;;;5096315;28;19940;-62
2022/02/18 00:46:11;;;;;;;;;;;18.60;41.70;;;;;;5096149;28;19912;-63
2022/02/18 00:48:37;;;;;;;;;;;18.60;41.70;;;;;;5096426;28;19909;-62
2022/02/18 00:51:02;;;;;;;;;;;18.60;41.70;;;;;;5077871;28;19915;-62
2022/02/18 00:53:28;;;;;;;;;;;18.70;41.70;;;;;;5095905;28;20401;-62
2022/02/18 00:55:53;;;;;;;;;;;18.60;41.70;;;;;;5096097;28;19929;-61
2022/02/18 00:58:20;;;;;;;;;;;18.60;41.70;;;;;;5095926;28;19915;-62
2022/02/18 01:00:47;;;;;;;;;;;18.60;41.70;;;;;;5095500;28;19943;-62
2022/02/18 01:03:12;;;;;;;;;;;18.60;41.70;;;;;;5077406;28;19938;-61
2022/02/18 01:05:38;;;;;;;;;;;18.60;41.70;;;;;;5095627;28;19915;-62
2022/02/18 01:08:04;;;;;;;;;;;18.60;41.70;;;;;;5095446;28;19953;-61
2022/02/18 01:10:29;;;;;;;;;;;18.60;41.70;;;;;;5095542;28;19915;-62
2022/02/18 01:12:55;;;;;;;;;;;18.60;41.70;;;;;;5095585;28;19909;-62
2022/02/18 01:15:20;;;;;;;;;;;18.60;41.70;;;;;;5095346;28;20402;-62
2022/02/18 01:17:46;;;;;;;;;;;18.60;41.70;;;;;;5095363;28;19970;-63
2022/02/18 01:20:11;;;;;;;;;;;18.60;41.70;;;;;;5095370;28;19955;-62
2022/02/18 01:22:37;;;;;;;;;;;18.60;41.70;;;;;;5095270;28;19923;-62
2022/02/18 01:25:03;;;;;;;;;;;18.60;41.70;;;;;;5095315;28;20003;-62
2022/02/18 01:27:28;;;;;;;;;;;18.60;41.70;;;;;;5095542;28;19915;-62
2022/02/18 01:29:54;;;;;;;;;;;18.60;41.70;;;;;;5095389;28;19908;-62
2022/02/18 01:32:19;;;;;;;;;;;18.60;41.70;;;;;;5095003;28;19908;-62
2022/02/18 01:34:45;;;;;;;;;;;18.60;41.70;;;;;;5095240;28;20317;-62
2022/02/18 01:37:10;;;;;;;;;;;18.60;41.70;;;;;;5076858;28;20295;-62
2022/02/18 01:39:36;;;;;;;;;;;18.60;41.70;;;;;;5094829;28;20359;-62
2022/02/18 01:42:02;;;;;;;;;;;18.60;41.70;;;;;;5095096;28;20391;-61
2022/02/18 01:44:35;;;;;;;;;;;18.60;41.80;;;;;;5094821;28;19914;-62
2022/02/18 01:47:01;;;;;;;;;;;18.60;41.70;;;;;;5094790;28;20378;-61
2022/02/18 01:49:26;;;;;;;;;;;18.60;41.70;;;;;;5094949;28;19950;-62
2022/02/18 01:51:52;;;;;;;;;;;18.60;41.70;;;;;;5094793;28;19908;-62
2022/02/18 01:54:17;;;;;;;;;;;18.60;41.70;;;;;;5094540;28;20387;-62
2022/02/18 01:56:42;;;;;;;;;;;18.60;41.70;;;;;;5094912;28;19995;-62
2022/02/18 01:59:08;;;;;;;;;;;18.60;41.70;;;;;;5094416;28;19956;-62
2022/02/18 02:01:33;;;;;;;;;;;18.60;41.70;;;;;;5094462;28;19916;-62
2022/02/18 02:03:59;;;;;;;;;;;18.60;41.80;;;;;;5094376;28;19908;-62
2022/02/18 02:06:24;;;;;;;;;;;18.60;41.80;;;;;;5094479;28;19915;-62
2022/02/18 02:08:50;;;;;;;;;;;18.60;41.80;;;;;;5094311;28;19919;-61
2022/02/18 02:11:15;;;;;;;;;;;18.60;41.80;;;;;;5076220;28;19953;-62
2022/02/18 02:13:44;;;;;;;;;;;18.60;41.80;;;;;;5076140;28;19912;-62
2022/02/18 02:16:14;;;;;;;;;;;18.60;41.80;;;;;;5094258;28;20315;-62
2022/02/18 02:18:39;;;;;;;;;;;18.60;41.80;;;;;;5094180;28;20359;-62
2022/02/18 02:21:05;;;;;;;;;;;18.60;41.80;;;;;;5094270;28;19924;-62
2022/02/18 02:23:30;;;;;;;;;;;18.60;41.80;;;;;;5094051;28;19915;-62
2022/02/18 02:25:55;;;;;;;;;;;18.60;41.80;;;;;;5075516;28;19930;-61
2022/02/18 02:28:22;;;;;;;;;;;18.60;41.80;;;;;;5093871;28;19919;-62
2022/02/18 02:30:47;;;;;;;;;;;18.60;41.80;;;;;;5094073;28;19928;-62
2022/02/18 02:33:13;;;;;;;;;;;18.60;41.80;;;;;;5075564;28;19931;-62
2022/02/18 02:35:38;;;;;;;;;;;18.50;41.80;;;;;;5093691;28;20370;-62
2022/02/18 02:38:04;;;;;;;;;;;18.60;41.80;;;;;;5093638;28;19912;-62
2022/02/18 02:40:30;;;;;;;;;;;18.50;41.80;;;;;;5093532;28;19908;-61
2022/02/18 02:42:56;;;;;;;;;;;18.60;41.80;;;;;;5093635;28;19912;-62
2022/02/18 02:45:21;;;;;;;;;;;18.60;41.80;;;;;;5075053;28;20270;-61
2022/02/18 02:47:47;;;;;;;;;;;18.60;41.80;;;;;;5093198;28;20430;-62
2022/02/18 02:50:13;;;;;;;;;;;18.50;41.80;;;;;;5093120;28;19948;-62
2022/02/18 02:52:38;;;;;;;;;;;18.60;41.80;;;;;;5093419;28;19953;-62
2022/02/18 02:55:07;;;;;;;;;;;18.50;41.80;;;;;;5093287;28;19912;-62
2022/02/18 02:57:33;;;;;;;;;;;18.60;41.80;;;;;;5074750;28;20003;-62
2022/02/18 02:59:58;;;;;;;;;;;18.60;41.80;;;;;;5092777;28;20007;-61
2022/02/18 03:02:24;;;;;;;;;;;18.60;41.80;;;;;;5092846;28;19955;-62
2022/02/18 03:04:49;;;;;;;;;;;18.60;41.80;;;;;;5092322;28;20429;-61
2022/02/18 03:07:15;;;;;;;;;;;18.60;41.80;;;;;;5092832;28;19908;-62
2022/02/18 03:09:40;;;;;;;;;;;18.50;41.80;;;;;;5092890;28;19908;-62
2022/02/18 03:12:06;;;;;;;;;;;18.60;41.80;;;;;;5092886;28;19931;-62
2022/02/18 03:14:32;;;;;;;;;;;18.60;41.80;;;;;;5092853;28;19912;-62
2022/02/18 03:16:57;;;;;;;;;;;18.60;41.80;;;;;;5092776;28;19908;-62
2022/02/18 03:19:23;;;;;;;;;;;18.60;41.80;;;;;;5092751;28;19924;-62
2022/02/18 03:21:51;;;;;;;;;;;18.60;41.80;;;;;;5092604;28;19916;-61
2022/02/18 03:24:17;;;;;;;;;;;18.60;41.80;;;;;;5092931;28;19908;-62
2022/02/18 03:26:43;;;;;;;;;;;18.60;41.80;;;;;;5092613;28;19942;-61
2022/02/18 03:29:08;;;;;;;;;;;18.60;41.80;;;;;;5092877;28;19930;-62
2022/02/18 03:31:34;;;;;;;;;;;18.60;41.80;;;;;;5092646;28;19908;-62
2022/02/18 03:33:59;;;;;;;;;;;18.60;41.80;;;;;;5092590;28;19955;-62
2022/02/18 03:36:24;;;;;;;;;;;18.60;41.80;;;;;;5092548;28;19999;-62
2022/02/18 03:38:50;;;;;;;;;;;18.60;41.80;;;;;;5092814;28;19955;-62
2022/02/18 03:41:15;;;;;;;;;;;18.60;41.80;;;;;;5092651;28;19912;-62
2022/02/18 03:43:41;;;;;;;;;;;18.60;41.80;;;;;;5092504;28;20061;-62
2022/02/18 03:46:06;;;;;;;;;;;18.60;41.80;;;;;;5092474;28;19951;-62
2022/02/18 03:48:32;;;;;;;;;;;18.60;41.80;;;;;;5074200;28;19908;-62
2022/02/18 03:50:58;;;;;;;;;;;18.60;41.80;;;;;;5092398;28;19908;-62
2022/02/18 03:53:24;;;;;;;;;;;18.60;41.80;;;;;;5092284;28;20018;-62
2022/02/18 03:55:49;;;;;;;;;;;18.60;41.80;;;;;;5092488;28;19934;-62
2022/02/18 03:58:15;;;;;;;;;;;18.60;41.80;;;;;;5092640;28;20272;-62
2022/02/18 04:00:41;;;;;;;;;;;18.60;41.80;;;;;;5092126;28;19920;-62
2022/02/18 04:03:07;;;;;;;;;;;18.60;41.80;;;;;;5092374;28;19908;-62
2022/02/18 04:05:33;;;;;;;;;;;18.60;41.80;;;;;;5074240;28;19981;-62
2022/02/18 04:07:58;;;;;;;;;;;18.60;41.80;;;;;;5092260;28;20363;-62
2022/02/18 04:10:24;;;;;;;;;;;18.50;41.80;;;;;;5092495;28;19916;-62
2022/02/18 04:12:49;;;;;;;;;;;18.60;41.80;;;;;;5074226;28;20348;-62
2022/02/18 04:15:14;;;;;;;;;;;18.60;41.80;;;;;;5094349;28;19946;-61
2022/02/18 04:17:40;;;;;;;;;;;18.60;41.80;;;;;;5096508;28;19908;-62
2022/02/18 04:20:06;;;;;;;;;;;18.60;41.80;;;;;;5096271;28;19953;-61
2022/02/18 04:22:32;;;;;;;;;;;18.60;41.80;;;;;;5096221;28;19920;-62
2022/02/18 04:24:57;;;;;;;;;;;18.60;41.80;;;;;;5095988;28;20304;-62
2022/02/18 04:27:23;;;;;;;;;;;18.60;41.80;;;;;;5096014;28;19908;-62
2022/02/18 04:29:48;;;;;;;;;;;18.60;41.80;;;;;;5096030;28;19947;-62
2022/02/18 04:32:13;;;;;;;;;;;18.60;41.80;;;;;;5095705;28;19908;-62
2022/02/18 04:34:39;;;;;;;;;;;18.60;41.80;;;;;;5095564;28;19990;-62
2022/02/18 04:37:05;;;;;;;;;;;18.60;41.80;;;;;;5095942;28;19938;-62
2022/02/18 04:39:30;;;;;;;;;;;18.60;41.80;;;;;;5095709;28;19908;-62
2022/02/18 04:41:55;;;;;;;;;;;18.60;41.90;;;;;;5095526;28;19916;-62
2022/02/18 04:44:21;;;;;;;;;;;18.60;41.80;;;;;;5095554;28;20375;-62
2022/02/18 04:46:46;;;;;;;;;;;18.60;41.80;;;;;;5095495;28;20327;-63
2022/02/18 04:49:12;;;;;;;;;;;18.60;41.90;;;;;;5077194;28;19908;-62
2022/02/18 04:51:37;;;;;;;;;;;18.60;41.90;;;;;;5095537;28;20386;-62
2022/02/18 04:54:03;;;;;;;;;;;18.60;41.90;;;;;;5095460;28;19915;-62
2022/02/18 04:56:29;;;;;;;;;;;18.60;41.80;;;;;;5095696;28;19960;-62
2022/02/18 04:58:54;;;;;;;;;;;18.60;41.80;;;;;;5095144;28;19920;-61
2022/02/18 05:01:20;;;;;;;;;;;18.60;41.80;;;;;;5076959;28;20066;-62
2022/02/18 05:03:45;;;;;;;;;;;18.60;41.80;;;;;;5095086;28;19959;-62
2022/02/18 05:06:11;;;;;;;;;;;18.60;41.90;;;;;;5095071;28;19908;-62
2022/02/18 05:08:36;;;;;;;;;;;18.60;41.90;;;;;;5095008;28;19909;-62
2022/02/18 05:11:01;;;;;;;;;;;18.60;41.80;;;;;;5094971;28;19918;-62
2022/02/18 05:13:27;;;;;;;;;;;18.60;41.80;;;;;;5094783;28;19984;-62
2022/02/18 05:15:52;;;;;;;;;;;18.60;41.80;;;;;;5076762;28;19908;-62
2022/02/18 05:18:18;;;;;;;;;;;18.60;41.80;;;;;;5094756;28;20302;-62
2022/02/18 05:20:43;;;;;;;;;;;18.60;41.80;;;;;;5094845;28;19926;-62
2022/02/18 05:23:09;;;;;;;;;;;18.60;41.80;;;;;;5076550;28;19912;-62
2022/02/18 05:25:35;;;;;;;;;;;18.70;41.80;;;;;;5094650;28;19908;-62
2022/02/18 05:28:04;;;;;;;;;;;18.70;41.80;;;;;;5094022;28;19908;-62
2022/02/18 05:30:29;;;;;;;;;;;18.70;41.80;;;;;;5076372;28;19908;-62
2022/02/18 05:32:55;;;;;;;;;;;18.70;41.80;;;;;;5094448;28;19931;-62
2022/02/18 05:35:20;;;;;;;;;;;18.80;41.80;;;;;;5094670;28;19915;-64
2022/02/18 05:37:46;;;;;;;;;;;18.80;41.70;;;;;;5094480;28;19922;-62
2022/02/18 05:40:11;;;;;;;;;;;18.80;41.70;;;;;;5094430;28;19918;-62
2022/02/18 05:42:37;;;;;;;;;;;18.80;41.70;;;;;;5094226;28;20016;-62
2022/02/18 05:45:03;;;;;;;;;;;18.80;41.70;;;;;;5094618;28;20013;-62
2022/02/18 05:47:28;;;;;;;;;;;18.80;41.70;;;;;;5094184;28;19935;-62
2022/02/18 05:49:54;;;;;;;;;;;18.80;41.70;;;;;;5094562;28;19955;-62
2022/02/18 05:52:19;;;;;;;;;;;18.80;41.70;;;;;;5094136;28;19920;-62
2022/02/18 05:54:44;;;;;;;;;;;18.80;41.70;;;;;;5094154;28;19908;-62
2022/02/18 05:57:10;;;;;;;;;;;18.80;41.70;;;;;;5094194;28;19908;-62
2022/02/18 05:59:35;;;;;;;;;;;18.80;41.70;;;;;;5093770;28;19938;-62
2022/02/18 06:02:01;;;;;;;;;;;18.90;41.70;;;;;;5075660;28;20133;-62
2022/02/18 06:04:26;;;;;;;;;;;18.80;41.70;;;;;;5093854;28;19983;-62
2022/02/18 06:06:52;;;;;;;;;;;18.80;41.70;;;;;;5094013;28;20351;-62
2022/02/18 06:09:17;;;;;;;;;;;18.90;41.70;;;;;;5075637;28;20428;-62
2022/02/18 06:11:43;;;;;;;;;;;18.90;41.70;;;;;;5093803;28;20372;-62
2022/02/18 06:14:08;;;;;;;;;;;18.90;41.70;;;;;;5093717;28;19931;-62
2022/02/18 06:16:34;;;;;;;;;;;18.90;41.70;;;;;;5093634;28;20049;-62
2022/02/18 06:19:03;;;;;;;;;;;18.90;41.70;;;;;;5093807;28;20267;-62
2022/02/18 06:21:29;;;;;;;;;;;18.90;41.70;;;;;;5093618;28;19916;-62
2022/02/18 06:23:54;;;;;;;;;;;18.90;41.70;;;;;;5093620;28;20347;-62
2022/02/18 06:26:20;;;;;;;;;;;18.90;41.70;;;;;;5093393;28;19942;-62
2022/02/18 06:28:45;;;;;;;;;;;18.90;41.70;;;;;;5093211;28;19908;-61
2022/02/18 06:31:11;;;;;;;;;;;18.90;41.70;;;;;;5093445;28;20177;-62
2022/02/18 06:33:36;;;;;;;;;;;19.00;41.70;;;;;;5093306;28;19908;-62
2022/02/18 06:36:02;;;;;;;;;;;19.00;41.70;;;;;;5093505;28;19912;-62
2022/02/18 06:38:28;;;;;;;;;;;19.00;41.70;;;;;;5092398;28;20283;-62
2022/02/18 06:40:53;;;;;;;;;;;19.00;41.70;;;;;;5093184;28;19915;-62
2022/02/18 06:43:19;;;;;;;;;;;19.00;41.70;;;;;;5093225;28;19912;-62
2022/02/18 06:45:44;;;;;;;;;;;19.00;41.70;;;;;;5093250;28;19912;-62
2022/02/18 06:48:09;;;;;;;;;;;19.00;41.70;;;;;;5093476;28;19980;-62
2022/02/18 06:50:35;;;;;;;;;;;19.00;41.60;;;;;;5093230;28;20015;-62
2022/02/18 06:53:01;;;;;;;;;;;19.00;41.70;;;;;;5093179;28;20317;-62
2022/02/18 06:55:26;;;;;;;;;;;19.00;41.70;;;;;;5074894;28;20382;-62
2022/02/18 06:57:53;;;;;;;;;;;19.00;41.70;;;;;;5093147;28;19912;-62
2022/02/18 07:00:19;;;;;;;;;;;19.00;41.70;;;;;;5092954;28;20398;-62
2022/02/18 07:02:44;;;;;;;;;;;19.00;41.70;;;;;;5074837;28;19916;-62
2022/02/18 07:05:11;;;;;;;;;;;19.00;41.70;;;;;;5074913;28;20259;-62
2022/02/18 07:07:37;;;;;;;;;;;19.00;41.70;;;;;;5093182;28;19946;-62
2022/02/18 07:10:06;;;;;;;;;;;19.00;41.70;;;;;;5092958;28;20474;-61
2022/02/18 07:12:31;;;;;;;;;;;19.00;41.70;;;;;;5092908;28;19916;-61
2022/02/18 07:14:57;;;;;;;;;;;19.00;41.70;;;;;;5093257;28;20303;-62
2022/02/18 07:17:24;;;;;;;;;;;19.00;41.70;;;;;;5093397;28;20527;-62
2022/02/18 07:19:50;;;;;;;;;;;19.00;41.70;;;;;;5092959;28;20257;-62
2022/02/18 07:22:15;;;;;;;;;;;19.00;41.70;;;;;;5092858;28;19978;-61
2022/02/18 07:24:42;;;;;;;;;;;19.00;41.70;;;;;;5092758;28;19908;-62
2022/02/18 07:27:08;;;;;;;;;;;19.00;41.70;;;;;;5092756;28;19995;-62
2022/02/18 07:29:33;;;;;;;;;;;19.00;41.70;;;;;;5092534;28;19948;-62
2022/02/18 07:31:59;;;;;;;;;;;19.00;41.70;;;;;;5092868;28;19908;-62
2022/02/18 07:34:24;;;;;;;;;;;19.00;41.70;;;;;;5092667;28;19912;-62
2022/02/18 07:36:50;;;;;;;;;;;19.00;41.70;;;;;;5092802;28;19909;-62
2022/02/18 07:39:15;;;;;;;;;;;19.10;41.70;;;;;;5074768;28;19908;-61
2022/02/18 07:41:41;;;;;;;;;;;19.10;41.70;;;;;;5093079;28;19916;-62
2022/02/18 07:44:06;;;;;;;;;;;19.00;41.70;;;;;;5092974;28;19908;-62
2022/02/18 07:46:31;;;;;;;;;;;19.00;41.70;;;;;;5092717;28;19969;-62
2022/02/18 07:48:57;;;;;;;;;;;19.10;41.70;;;;;;5092761;28;19974;-62
2022/02/18 07:51:22;;;;;;;;;;;19.10;41.70;;;;;;5096357;28;19916;-62
2022/02/18 07:53:48;;;;;;;;;;;19.00;41.70;;;;;;5096606;28;19912;-62
2022/02/18 07:56:13;;;;;;;;;;;19.10;41.70;;;;;;5078526;28;19923;-62
2022/02/18 07:58:39;;;;;;;;;;;19.10;41.70;;;;;;5096466;28;20329;-62
2022/02/18 08:01:04;;;;;;;;;;;19.10;41.70;;;;;;5096507;28;19912;-62
2022/02/18 08:03:30;;;;;;;;;;;19.10;41.70;;;;;;5078400;28;19912;-62
2022/02/18 08:05:58;;;;;;;;;;;19.10;41.70;;;;;;5096676;28;19908;-62
2022/02/18 08:08:24;;;;;;;;;;;19.10;41.70;;;;;;5096285;28;19943;-62
2022/02/18 08:10:50;;;;;;;;;;;19.10;41.80;;;;;;5096540;28;19919;-62
2022/02/18 08:13:16;;;;;;;;;;;19.10;41.80;;;;;;5096284;28;19908;-61
2022/02/18 08:15:41;;;;;;;;;;;19.10;41.70;;;;;;5096199;28;19999;-62
2022/02/18 08:18:06;;;;;;;;;;;19.10;41.80;;;;;;5096190;28;20344;-62
2022/02/18 08:20:32;;;;;;;;;;;19.10;41.70;;;;;;5096120;28;20418;-62
2022/02/18 08:22:57;;;;;;;;;;;19.10;41.80;;;;;;5077875;28;19954;-62
2022/02/18 08:25:23;;;;;;;;;;;19.10;41.80;;;;;;5096064;28;20278;-62
2022/02/18 08:27:48;;;;;;;;;;;19.10;41.80;;;;;;5095718;28;20362;-62
2022/02/18 08:30:14;;;;;;;;;;;19.10;41.80;;;;;;5095873;28;19916;-62
2022/02/18 08:32:39;;;;;;;;;;;19.10;41.80;;;;;;5095854;28;19908;-62
2022/02/18 08:35:05;;;;;;;;;;;19.10;41.80;;;;;;5077846;28;20280;-62
2022/02/18 08:37:30;;;;;;;;;;;19.10;41.80;;;;;;5095804;28;20011;-62
2022/02/18 08:39:56;;;;;;;;;;;19.10;41.80;;;;;;5095908;28;19943;-62
2022/02/18 08:42:22;;;;;;;;;;;19.10;41.80;;;;;;5095528;28;19924;-61
2022/02/18 08:44:48;;;;;;;;;;;19.10;41.80;;;;;;5095711;28;20402;-62
2022/02/18 08:47:13;;;;;;;;;;;19.20;41.80;;;;;;5077502;28;19939;-62
2022/02/18 08:49:42;;;;;;;;;;;19.10;41.80;;;;;;5095726;28;19959;-62
2022/02/18 08:52:07;;;;;;;;;;;19.20;41.80;;;;;;5095730;28;19915;-62
2022/02/18 08:54:33;;;;;;;;;;;19.10;41.80;;;;;;5096011;28;19908;-62
2022/02/18 08:56:58;;;;;;;;;;;19.10;41.80;;;;;;5077518;28;19972;-62
2022/02/18 08:59:24;;;;;;;;;;;19.10;41.80;;;;;;5095669;28;19924;-61
2022/02/18 09:01:49;;;;;;;;;;;19.20;41.90;;;;;;5076694;28;19957;-62
2022/02/18 09:04:15;;;;;;;;;;;19.20;41.90;;;;;;5095691;28;19908;-62
2022/02/18 09:06:40;;;;;;;;;;;19.20;41.80;;;;;;5095668;28;20335;-62
2022/02/18 09:09:06;;;;;;;;;;;19.20;41.80;;;;;;5095352;28;19982;-62
2022/02/18 09:11:31;;;;;;;;;;;19.20;41.80;;;;;;5095235;28;19912;-62
2022/02/18 09:13:57;;;;;;;;;;;19.20;41.80;;;;;;5095569;28;19915;-62
2022/02/18 09:16:22;;;;;;;;;;;19.20;41.90;;;;;;5095400;28;19915;-62
2022/02/18 09:18:48;;;;;;;;;;;19.20;41.90;;;;;;5095334;28;19915;-62
2022/02/18 09:21:14;;;;;;;;;;;19.20;41.80;;;;;;5095402;28;19939;-62
2022/02/18 09:23:40;;;;;;;;;;;19.20;41.90;;;;;;5095186;28;20368;-62
2022/02/18 09:26:05;;;;;;;;;;;19.20;41.90;;;;;;5094987;28;19949;-62
2022/02/18 09:28:31;;;;;;;;;;;19.20;41.90;;;;;;5095217;28;19990;-62
2022/02/18 09:30:56;;;;;;;;;;;19.20;41.90;;;;;;5094699;28;19953;-61
2022/02/18 09:33:22;;;;;;;;;;;19.20;41.90;;;;;;5076725;28;19944;-62
2022/02/18 09:35:48;;;;;;;;;;;19.20;41.90;;;;;;5094682;28;20257;-62
2022/02/18 09:38:14;;;;;;;;;;;19.20;41.90;;;;;;5094650;28;19919;-62
2022/02/18 09:40:40;;;;;;;;;;;19.20;41.90;;;;;;5095128;28;19972;-62
2022/02/18 09:43:05;;;;;;;;;;;19.20;41.90;;;;;;5094956;28;19999;-62
2022/02/18 09:45:31;;;;;;;;;;;19.20;41.90;;;;;;5094843;28;20001;-62
2022/02/18 09:47:57;;;;;;;;;;;19.20;41.90;;;;;;5094806;28;20295;-61
2022/02/18 09:50:23;;;;;;;;;;;19.30;41.90;;;;;;5094718;28;19908;-61
2022/02/18 09:52:48;;;;;;;;;;;19.20;41.90;;;;;;5076501;28;19908;-62
2022/02/18 09:55:14;;;;;;;;;;;19.30;41.90;;;;;;5094554;28;19912;-61
2022/02/18 09:57:40;;;;;;;;;;;19.20;41.90;;;;;;5076364;28;19954;-61
2022/02/18 10:00:06;;;;;;;;;;;19.30;41.90;;;;;;5094468;28;19939;-61
2022/02/18 10:02:32;;;;;;;;;;;19.30;42.00;;;;;;5076100;28;19916;-62
2022/02/18 10:04:57;;;;;;;;;;;19.30;41.90;;;;;;5094184;28;19977;-61
2022/02/18 10:07:25;;;;;;;;;;;19.30;41.90;;;;;;5094108;28;19984;-61
2022/02/18 10:09:50;;;;;;;;;;;19.30;41.90;;;;;;5094226;28;19969;-61
2022/02/18 10:12:16;;;;;;;;;;;19.30;42.00;;;;;;5093797;28;19908;-61
2022/02/18 10:14:50;;;;;;;;;;;19.30;42.00;;;;;;5093954;28;20303;-62
2022/02/18 10:17:16;;;;;;;;;;;19.30;42.00;;;;;;5093750;28;20401;-62
2022/02/18 10:19:48;;;;;;;;;;;19.30;42.00;;;;;;5093666;28;19912;-61
2022/02/18 10:22:15;;;;;;;;;;;19.30;42.00;;;;;;5093768;28;19956;-62
2022/02/18 10:24:42;;;;;;;;;;;19.30;42.00;;;;;;5093880;28;19947;-62
2022/02/18 10:27:08;;;;;;;;;;;19.30;42.00;;;;;;5093884;28;19908;-61
2022/02/18 10:29:33;;;;;;;;;;;19.30;42.00;;;;;;5093821;28;20387;-61
2022/02/18 10:32:09;;;;;;;;;;;19.30;42.00;;;;;;5093759;28;19915;-61
2022/02/18 10:34:53;;;;;;;;;;;19.30;42.00;;;;;;5093653;28;19908;-62
2022/02/18 10:37:20;;;;;;;;;;;19.30;42.00;;;;;;5093910;28;19992;-61
2022/02/18 10:39:46;;;;;;;;;;;19.30;42.10;;;;;;5093790;28;19953;-61
2022/02/18 10:42:13;;;;;;;;;;;19.40;42.10;;;;;;5093853;28;19961;-61
2022/02/18 10:44:39;;;;;;;;;;;19.30;42.10;;;;;;5093672;28;20274;-62
2022/02/18 10:47:07;;;;;;;;;;;19.30;42.10;;;;;;5093727;28;20015;-61
2022/02/18 10:49:42;;;;;;;;;;;19.30;42.10;;;;;;5093859;28;19913;-62
2022/02/18 10:52:12;;;;;;;;;;;19.30;42.10;;;;;;5093536;28;19915;-62
2022/02/18 10:54:37;;;;;;;;;;;19.40;42.10;;;;;;5093507;28;19953;-61
2022/02/18 10:57:23;;;;;;;;;;;19.40;42.10;;;;;;5093374;28;19908;-62
2022/02/18 10:59:50;;;;;;;;;;;19.40;42.10;;;;;;5093248;28;19920;-62
2022/02/18 11:02:34;;;;;;;;;;;19.40;42.10;;;;;;5093476;28;19924;-61
2022/02/18 11:05:18;;;;;;;;;;;19.30;42.10;;;;;;5093518;28;19908;-61
2022/02/18 11:07:44;;;;;;;;;;;19.40;42.20;;;;;;5093257;28;19922;-61
2022/02/18 11:10:27;;;;;;;;;;;19.40;42.10;;;;;;5093322;28;19908;-61
2022/02/18 11:12:54;;;;;;;;;;;19.30;42.10;;;;;;5093327;28;19912;-61
2022/02/18 11:15:20;;;;;;;;;;;19.40;42.10;;;;;;5093354;28;19927;-61
2022/02/18 11:17:45;;;;;;;;;;;19.40;42.20;;;;;;5093172;28;19908;-61
2022/02/18 11:20:13;;;;;;;;;;;19.40;42.20;;;;;;5074827;28;19908;-61
2022/02/18 11:22:38;;;;;;;;;;;19.40;42.20;;;;;;5092972;28;20007;-61
2022/02/18 11:25:04;;;;;;;;;;;19.40;42.20;;;;;;5092417;28;19912;-61
2022/02/18 11:27:29;;;;;;;;;;;19.40;42.20;;;;;;5093006;28;19908;-61
2022/02/18 11:29:55;;;;;;;;;;;19.40;42.20;;;;;;5092993;28;20300;-61
2022/02/18 11:32:24;;;;;;;;;;;19.40;42.20;;;;;;5092753;28;20283;-61
2022/02/18 11:35:01;;;;;;;;;;;19.40;42.20;;;;;;5092919;28;19912;-61
2022/02/18 11:37:43;;;;;;;;;;;19.40;42.20;;;;;;5093116;28;19931;-61
2022/02/18 11:40:12;;;;;;;;;;;19.40;42.20;;;;;;5093015;28;20338;-61
2022/02/18 11:42:39;;;;;;;;;;;19.50;42.20;;;;;;5074703;28;19916;-61
2022/02/18 11:45:12;;;;;;;;;;;19.40;42.20;;;;;;5092866;28;20386;-61
2022/02/18 11:47:37;;;;;;;;;;;19.50;42.20;;;;;;5092671;28;19915;-61
2022/02/18 11:50:07;;;;;;;;;;;19.50;42.20;;;;;;5092776;28;19908;-61
2022/02/18 11:52:40;;;;;;;;;;;19.40;42.20;;;;;;5092766;28;20010;-61
2022/02/18 11:55:26;;;;;;;;;;;19.40;42.20;;;;;;5092902;28;19939;-61
2022/02/18 11:58:18;;;;;;;;;;;19.50;42.20;;;;;;5092678;28;19955;-61
2022/02/18 12:00:44;;;;;;;;;;;19.50;42.20;;;;;;5087637;28;20295;-61
2022/02/18 12:03:14;;;;;;;;;;;19.50;42.30;;;;;;5092691;28;19923;-61
2022/02/18 12:05:59;;;;;;;;;;;19.50;42.30;;;;;;5092713;28;19908;-61
2022/02/18 12:08:30;;;;;;;;;;;19.50;42.30;;;;;;5092614;28;20375;-61
2022/02/18 12:10:56;;;;;;;;;;;19.50;42.30;;;;;;5092565;28;19908;-61
2022/02/18 12:13:21;;;;;;;;;;;19.50;42.30;;;;;;5092817;28;19938;-61
2022/02/18 12:15:48;;;;;;;;;;;19.50;42.30;;;;;;5092492;28;19912;-61
2022/02/18 12:18:19;;;;;;;;;;;19.50;42.30;;;;;;5074227;28;19909;-61
2022/02/18 12:20:44;;;;;;;;;;;19.50;42.30;;;;;;5092664;28;19930;-61
2022/02/18 12:23:29;;;;;;;;;;;19.50;42.40;;;;;;5092510;28;19939;-61
2022/02/18 12:26:13;;;;;;;;;;;19.50;42.30;;;;;;5092536;28;20355;-61
2022/02/18 12:28:38;;;;;;;;;;;19.50;42.40;;;;;;5092466;28;19908;-61
2022/02/18 12:31:09;;;;;;;;;;;19.50;42.40;;;;;;5092592;28;20019;-61
2022/02/18 12:33:35;;;;;;;;;;;19.50;42.40;;;;;;5092455;28;19908;-61
2022/02/18 12:36:08;;;;;;;;;;;19.50;42.40;;;;;;5092700;28;19915;-61
2022/02/18 12:38:34;;;;;;;;;;;19.50;42.40;;;;;;5096129;28;19908;-61
2022/02/18 12:41:03;;;;;;;;;;;19.50;42.40;;;;;;5095912;28;19919;-61
2022/02/18 12:43:29;;;;;;;;;;;19.50;42.40;;;;;;5096076;28;19948;-61
2022/02/18 12:45:56;;;;;;;;;;;19.50;42.40;;;;;;5095664;28;19920;-61
2022/02/18 12:48:34;;;;;;;;;;;19.50;42.40;;;;;;5095485;28;20451;-61
2022/02/18 12:51:02;;;;;;;;;;;19.50;42.40;;;;;;5095353;28;19963;-61
2022/02/18 12:53:28;;;;;;;;;;;19.50;42.40;;;;;;5095526;28;19908;-61
2022/02/18 12:55:54;;;;;;;;;;;19.50;42.50;;;;;;5095555;28;19908;-61
2022/02/18 12:58:21;;;;;;;;;;;19.50;42.40;;;;;;5095618;28;19998;-61
2022/02/18 13:00:46;;;;;;;;;;;19.50;42.40;;;;;;5095376;28;19920;-61
2022/02/18 13:03:12;;;;;;;;;;;19.50;42.40;;;;;;5095267;28;19920;-61
2022/02/18 13:05:38;;;;;;;;;;;19.50;42.40;;;;;;5095338;28;19912;-61
2022/02/18 13:08:05;;;;;;;;;;;19.50;42.40;;;;;;5095232;28;19912;-61
2022/02/18 13:10:32;;;;;;;;;;;19.50;42.40;;;;;;5095154;28;19943;-61
2022/02/18 13:12:58;;;;;;;;;;;19.50;42.50;;;;;;5095297;28;19908;-61
2022/02/18 13:15:25;;;;;;;;;;;19.50;42.50;;;;;;5095029;28;20327;-61
2022/02/18 13:17:52;;;;;;;;;;;19.50;42.50;;;;;;5077000;28;19947;-61
2022/02/18 13:20:31;;;;;;;;;;;19.50;42.50;;;;;;5095640;28;19991;-61
2022/02/18 13:22:59;;;;;;;;;;;19.50;42.50;;;;;;5077150;28;19950;-61
2022/02/18 13:25:26;;;;;;;;;;;19.50;42.50;;;;;;5095141;28;20351;-62
2022/02/18 13:27:53;;;;;;;;;;;19.50;42.50;;;;;;5077138;28;19908;-62
2022/02/18 13:30:20;;;;;;;;;;;19.50;42.50;;;;;;5095062;28;19908;-62
2022/02/18 13:32:46;;;;;;;;;;;19.50;42.50;;;;;;5095027;28;20381;-62
2022/02/18 13:35:17;;;;;;;;;;;19.50;42.50;;;;;;5094790;28;19999;-62
2022/02/18 13:37:42;;;;;;;;;;;19.60;42.50;;;;;;5094974;28;19958;-62
2022/02/18 13:40:12;;;;;;;;;;;19.50;42.50;;;;;;5094886;28;19912;-61
2022/02/18 13:42:50;;;;;;;;;;;19.60;42.50;;;;;;5094907;28;19917;-62
2022/02/18 13:45:16;;;;;;;;;;;19.60;42.50;;;;;;5094864;28;20379;-62
2022/02/18 13:47:41;;;;;;;;;;;19.50;42.50;;;;;;5094145;28;19915;-62
2022/02/18 13:50:07;;;;;;;;;;;19.60;42.50;;;;;;5094844;28;20011;-62
2022/02/18 13:52:33;;;;;;;;;;;19.60;42.50;;;;;;5094625;28;19955;-62
2022/02/18 13:54:58;;;;;;;;;;;19.60;42.60;;;;;;5094353;28;19916;-62
2022/02/18 13:57:29;;;;;;;;;;;19.60;42.60;;;;;;5094461;28;19908;-62
2022/02/18 13:59:55;;;;;;;;;;;19.50;42.60;;;;;;5094406;28;19920;-62
2022/02/18 14:02:22;;;;;;;;;;;19.50;42.60;;;;;;5094124;28;19916;-62
2022/02/18 14:04:49;;;;;;;;;;;19.50;42.60;;;;;;5094253;28;20279;-62
2022/02/18 14:07:18;;;;;;;;;;;19.50;42.60;;;;;;5094138;28;20377;-62
2022/02/18 14:09:49;;;;;;;;;;;19.60;42.60;;;;;;5093867;28;19908;-62
2022/02/18 14:12:15;;;;;;;;;;;19.60;42.60;;;;;;5094206;28;20007;-62